Time;durP1;ratioP1;P1;durP2;ratioP2;P2;SDS_P1;SDS_P2;PMS_P1;PMS_P2;Temp;Humidity;BMP_temperature;BMP_pressure;BME280_temperature;BME280_humidity;BME280_pressure;Samples;Min_cycle;Max_cycle;Signal;HPM_P1;HPM_P2
2022/04/09 00:02:14;;;;;;;0.10;0.10;;;2.40;99.90;;;;;;4988618;28;20038;-67
2022/04/09 00:04:40;;;;;;;5.88;0.10;;;2.40;99.90;;;;;;4980956;28;20043;-70
2022/04/09 00:07:05;;;;;;;0.15;0.05;;;2.40;99.90;;;;;;4990180;28;20061;-70
2022/04/09 00:09:31;;;;;;;0.10;0.00;;;2.30;99.90;;;;;;4987967;28;20080;-68
2022/04/09 00:11:57;;;;;;;0.10;0.00;;;2.20;99.90;;;;;;4990379;28;20391;-71
2022/04/09 00:14:23;;;;;;;0.13;0.00;;;2.10;99.90;;;;;;4989016;28;20034;-69
2022/04/09 00:16:49;;;;;;;1.25;0.08;;;2.10;99.90;;;;;;4989213;28;20034;-70
2022/04/09 00:19:15;;;;;;;0.00;0.00;;;2.20;99.90;;;;;;4988361;28;20096;-70
2022/04/09 00:21:40;;;;;;;0.50;0.00;;;2.10;99.90;;;;;;4987779;28;20030;-70
2022/04/09 00:24:07;;;;;;;0.43;0.03;;;2.10;99.90;;;;;;4987160;28;20049;-70
2022/04/09 00:26:32;;;;;;;0.43;0.00;;;2.20;99.90;;;;;;4987540;28;20197;-68
2022/04/09 00:28:58;;;;;;;0.20;0.00;;;2.20;99.90;;;;;;4987987;28;20044;-68
2022/04/09 00:31:23;;;;;;;0.00;0.00;;;2.20;99.90;;;;;;4988330;28;20369;-68
2022/04/09 00:33:49;;;;;;;0.05;0.00;;;2.20;99.90;;;;;;4988378;28;20030;-68
2022/04/09 00:36:15;;;;;;;0.45;0.03;;;2.20;99.90;;;;;;4986855;28;20180;-68
2022/04/09 00:38:40;;;;;;;0.28;0.00;;;2.20;99.90;;;;;;4986508;28;20041;-68
2022/04/09 00:41:10;;;;;;;0.45;0.00;;;2.10;99.90;;;;;;4988585;28;20037;-70
2022/04/09 00:43:40;;;;;;;0.10;0.10;;;2.00;99.90;;;;;;4987436;28;20047;-70
2022/04/09 00:46:06;;;;;;;0.32;0.10;;;2.00;99.90;;;;;;4988376;28;20046;-69
2022/04/09 00:48:32;;;;;;;0.85;0.00;;;2.00;99.90;;;;;;4987934;28;20044;-68
2022/04/09 00:50:58;;;;;;;0.10;0.05;;;2.00;99.90;;;;;;4988633;28;20591;-69
2022/04/09 00:53:26;;;;;;;0.10;0.08;;;2.00;99.90;;;;;;4984452;28;20499;-68
2022/04/09 00:58:38;;;;;;;0.20;0.10;;;2.10;99.90;;;;;;4986811;28;20033;-68
2022/04/09 01:01:04;;;;;;;0.22;0.10;;;2.20;99.90;;;;;;4987591;28;20153;-68
2022/04/09 01:03:34;;;;;;;0.32;0.22;;;2.20;99.90;;;;;;4987767;28;20027;-67
2022/04/09 01:05:59;;;;;;;0.55;0.28;;;2.20;99.90;;;;;;4986278;28;20042;-70
2022/04/09 01:08:25;;;;;;;0.30;0.20;;;2.20;99.90;;;;;;4988497;28;20053;-70
2022/04/09 01:10:51;;;;;;;0.52;0.17;;;2.20;99.90;;;;;;4985844;28;20407;-68
2022/04/09 01:13:18;;;;;;;0.20;0.10;;;2.20;99.90;;;;;;4986141;28;20035;-68
2022/04/09 01:15:44;;;;;;;0.82;0.20;;;2.30;99.90;;;;;;4983764;28;20145;-67
2022/04/09 01:18:10;;;;;;;0.88;0.30;;;2.30;99.90;;;;;;4988749;28;20113;-67
2022/04/09 01:20:36;;;;;;;0.70;0.40;;;2.30;99.90;;;;;;4987260;28;20034;-66
2022/04/09 01:23:01;;;;;;;0.63;0.45;;;2.30;99.90;;;;;;4988740;28;20518;-67
2022/04/09 01:25:27;;;;;;;0.88;0.40;;;2.30;99.90;;;;;;4987421;28;20045;-67
2022/04/09 01:27:53;;;;;;;0.63;0.38;;;2.20;99.90;;;;;;4986384;28;20065;-67
2022/04/09 01:30:19;;;;;;;0.40;0.30;;;2.20;99.90;;;;;;4984461;28;20022;-66
2022/04/09 01:32:46;;;;;;;1.00;0.57;;;2.20;99.90;;;;;;4988006;28;20113;-66
2022/04/09 01:35:12;;;;;;;1.02;0.55;;;2.20;99.90;;;;;;4987468;28;20046;-68
2022/04/09 01:37:37;;;;;;;1.00;0.60;;;2.20;99.90;;;;;;4988398;28;20037;-66
2022/04/09 01:40:04;;;;;;;0.70;0.32;;;2.30;99.90;;;;;;4986371;28;20027;-68
2022/04/09 01:42:29;;;;;;;1.10;0.55;;;2.20;99.90;;;;;;4988568;28;20080;-66
2022/04/09 01:44:55;;;;;;;0.82;0.60;;;2.10;99.90;;;;;;4986286;28;20491;-68
2022/04/09 01:47:21;;;;;;;1.52;0.63;;;2.00;99.90;;;;;;4988911;28;20038;-68
2022/04/09 01:49:47;;;;;;;1.35;0.70;;;2.00;99.90;;;;;;4986215;28;20525;-68
2022/04/09 01:52:13;;;;;;;2.05;0.88;;;2.00;99.90;;;;;;4988538;28;20065;-68
2022/04/09 01:54:39;;;;;;;1.38;0.70;;;2.00;99.90;;;;;;4985217;28;20061;-67
2022/04/09 01:57:04;;;;;;;1.23;0.68;;;1.90;99.90;;;;;;4987119;28;20038;-67
2022/04/09 01:59:31;;;;;;;0.93;0.60;;;2.00;99.90;;;;;;4987067;28;20034;-67
2022/04/09 02:01:57;;;;;;;2.60;0.75;;;2.00;99.90;;;;;;4986225;28;20538;-66
2022/04/09 02:04:23;;;;;;;1.23;0.57;;;2.00;99.90;;;;;;4987144;28;20031;-67
2022/04/09 02:06:49;;;;;;;2.00;0.88;;;2.10;99.90;;;;;;4986867;28;20084;-67
2022/04/09 02:09:15;;;;;;;2.20;0.70;;;2.10;99.90;;;;;;4987061;28;20030;-67
2022/04/09 02:11:42;;;;;;;1.67;0.80;;;2.10;99.90;;;;;;4987950;28;20117;-67
2022/04/09 02:14:09;;;;;;;1.52;0.80;;;2.00;99.90;;;;;;4985267;28;20084;-67
2022/04/09 02:16:35;;;;;;;2.40;0.90;;;2.00;99.90;;;;;;4987877;28;20065;-66
2022/04/09 02:19:02;;;;;;;2.15;1.00;;;2.00;99.90;;;;;;4986722;28;20089;-67
2022/04/09 02:21:28;;;;;;;1.63;0.80;;;1.90;99.90;;;;;;4988713;28;20030;-68
2022/04/09 02:23:54;;;;;;;2.65;1.20;;;1.80;99.90;;;;;;4985701;28;20025;-68
2022/04/09 02:26:19;;;;;;;3.03;1.40;;;1.90;99.90;;;;;;4988435;28;20046;-68
2022/04/09 02:28:49;;;;;;;2.85;1.05;;;1.90;99.90;;;;;;4985682;28;20114;-68
2022/04/09 02:31:18;;;;;;;2.15;1.10;;;1.90;99.90;;;;;;4987490;28;20049;-69
2022/04/09 02:33:47;;;;;;;3.30;1.13;;;1.90;99.90;;;;;;4987035;28;20530;-68
2022/04/09 02:36:13;;;;;;;1.98;1.05;;;1.90;99.90;;;;;;4987716;28;20022;-68
2022/04/09 02:38:39;;;;;;;2.83;1.40;;;1.90;99.90;;;;;;4986825;28;20105;-68
2022/04/09 02:41:08;;;;;;;2.50;1.20;;;1.90;99.90;;;;;;4981178;28;20030;-68
2022/04/09 02:43:37;;;;;;;2.13;1.00;;;1.90;99.90;;;;;;4989745;28;20121;-69
2022/04/09 02:46:03;;;;;;;2.95;1.20;;;1.80;99.90;;;;;;4990502;28;20046;-68
2022/04/09 02:48:29;;;;;;;2.90;1.23;;;1.80;99.90;;;;;;4989188;28;20027;-68
2022/04/09 02:50:55;;;;;;;2.60;1.20;;;1.80;99.90;;;;;;4990688;28;20045;-68
2022/04/09 02:53:20;;;;;;;2.88;1.40;;;1.80;99.90;;;;;;4990637;28;20518;-68
2022/04/09 02:55:46;;;;;;;3.45;1.70;;;1.70;99.90;;;;;;4981739;28;20089;-67
2022/04/09 02:58:12;;;;;;;2.65;1.40;;;1.70;99.90;;;;;;4989189;28;20121;-68
2022/04/09 03:00:38;;;;;;;4.68;1.52;;;1.60;99.90;;;;;;4989711;28;20031;-67
2022/04/09 03:03:04;;;;;;;2.78;1.30;;;1.60;99.90;;;;;;4990720;28;20038;-68
2022/04/09 03:05:30;;;;;;;3.15;1.50;;;1.60;99.90;;;;;;4989064;28;20088;-67
2022/04/09 03:07:57;;;;;;;2.78;1.30;;;1.60;99.90;;;;;;4989762;28;20090;-67
2022/04/09 03:10:23;;;;;;;3.30;1.73;;;1.60;99.90;;;;;;4991149;28;20375;-67
2022/04/09 03:12:48;;;;;;;4.55;1.73;;;1.60;99.90;;;;;;4987793;28;20057;-67
2022/04/09 03:15:15;;;;;;;5.13;2.13;;;1.60;99.90;;;;;;4988443;28;20042;-67
2022/04/09 03:17:41;;;;;;;7.07;2.75;;;1.60;99.90;;;;;;4989445;28;20030;-67
2022/04/09 03:20:07;;;;;;;7.55;2.95;;;1.60;99.90;;;;;;4985898;28;20038;-67
2022/04/09 03:22:34;;;;;;;7.10;3.03;;;1.60;99.90;;;;;;4989681;28;20198;-67
2022/04/09 03:25:00;;;;;;;7.43;2.95;;;1.60;99.90;;;;;;4989324;28;20046;-67
2022/04/09 03:27:26;;;;;;;8.48;3.20;;;1.50;99.90;;;;;;4989729;28;20034;-67
2022/04/09 03:29:53;;;;;;;7.90;3.30;;;1.60;99.90;;;;;;4988361;28;20030;-67
2022/04/09 03:32:19;;;;;;;8.80;3.15;;;1.50;99.90;;;;;;4988273;28;20046;-67
2022/04/09 03:34:45;;;;;;;6.20;2.60;;;1.50;99.90;;;;;;4989735;28;20112;-67
2022/04/09 03:37:11;;;;;;;7.30;3.17;;;1.40;99.90;;;;;;4987870;28;20486;-67
2022/04/09 03:39:37;;;;;;;9.05;3.20;;;1.40;99.90;;;;;;5003400;28;20384;-66
2022/04/09 03:42:06;;;;;;;7.85;3.05;;;1.50;99.90;;;;;;4989248;28;20049;-68
2022/04/09 03:44:32;;;;;;;9.18;3.47;;;1.50;99.90;;;;;;4989128;28;20046;-67
2022/04/09 03:47:02;;;;;;;8.52;3.28;;;1.50;99.90;;;;;;4989077;28;20034;-68
2022/04/09 03:49:32;;;;;;;7.75;3.55;;;1.50;99.90;;;;;;4989808;28;20054;-67
2022/04/09 03:51:58;;;;;;;8.27;3.55;;;1.60;99.90;;;;;;4987819;28;20030;-67
2022/04/09 03:54:23;;;;;;;8.55;3.45;;;1.60;99.90;;;;;;4988962;28;20380;-67
2022/04/09 03:56:49;;;;;;;11.73;4.32;;;1.60;99.90;;;;;;4988224;28;20030;-67
2022/04/09 03:59:16;;;;;;;11.68;4.40;;;1.60;99.90;;;;;;4989535;28;20034;-66
2022/04/09 04:01:44;;;;;;;9.52;4.32;;;1.60;99.90;;;;;;4988060;28;21563;-67
2022/04/09 04:04:10;;;;;;;14.40;5.60;;;1.60;99.90;;;;;;4989934;28;20031;-67
2022/04/09 04:06:36;;;;;;;17.40;5.85;;;1.60;99.90;;;;;;4988786;28;20041;-68
2022/04/09 04:09:02;;;;;;;20.98;7.95;;;1.70;99.90;;;;;;4988524;28;20145;-67
2022/04/09 04:11:28;;;;;;;16.95;7.10;;;1.70;99.90;;;;;;4986454;28;20030;-67
2022/04/09 04:13:54;;;;;;;23.00;7.70;;;1.80;99.90;;;;;;4988732;28;20030;-67
2022/04/09 04:16:19;;;;;;;22.88;8.38;;;1.70;99.90;;;;;;4988323;28;20121;-67
2022/04/09 04:18:45;;;;;;;20.73;8.43;;;1.80;99.90;;;;;;4988720;28;20031;-67
2022/04/09 04:21:11;;;;;;;20.88;8.23;;;1.80;99.90;;;;;;4983416;28;20038;-67
2022/04/09 04:23:37;;;;;;;24.58;8.70;;;1.80;99.90;;;;;;4989104;28;20027;-67
2022/04/09 04:26:03;;;;;;;24.55;8.82;;;1.80;99.90;;;;;;4987061;28;20038;-68
2022/04/09 04:28:29;;;;;;;23.40;8.88;;;1.80;99.90;;;;;;4988864;28;20026;-67
2022/04/09 04:30:55;;;;;;;23.95;9.05;;;1.90;99.90;;;;;;4987893;28;20042;-67
2022/04/09 04:33:21;;;;;;;25.88;9.40;;;1.90;99.90;;;;;;4988623;28;20030;-67
2022/04/09 04:35:47;;;;;;;24.17;9.00;;;1.80;99.90;;;;;;4987370;28;20046;-67
2022/04/09 04:38:13;;;;;;;25.60;9.70;;;1.80;99.90;;;;;;4989416;28;20080;-67
2022/04/09 04:40:39;;;;;;;27.80;10.60;;;1.80;99.90;;;;;;4988039;28;20046;-67
2022/04/09 04:43:05;;;;;;;22.92;9.13;;;1.80;99.90;;;;;;4988040;28;20038;-67
2022/04/09 04:45:31;;;;;;;24.15;9.38;;;1.80;99.90;;;;;;4988605;28;20088;-67
2022/04/09 04:47:57;;;;;;;28.08;9.85;;;1.70;99.90;;;;;;4986335;28;20047;-67
2022/04/09 04:50:24;;;;;;;25.23;9.32;;;1.70;99.90;;;;;;4988275;28;20049;-67
2022/04/09 04:52:50;;;;;;;25.65;9.90;;;1.70;99.90;;;;;;4987819;28;20495;-67
2022/04/09 04:55:16;;;;;;;23.25;9.35;;;1.70;99.90;;;;;;4988644;28;20117;-67
2022/04/09 04:57:52;;;;;;;25.75;9.75;;;1.70;99.90;;;;;;4987630;28;20156;-67
2022/04/09 05:00:20;;;;;;;25.40;10.27;;;1.70;99.90;;;;;;4980438;28;20026;-66
2022/04/09 05:02:46;;;;;;;24.63;10.20;;;1.70;99.90;;;;;;4987733;28;20750;-67
2022/04/09 05:05:12;;;;;;;26.15;10.32;;;1.80;99.90;;;;;;4979486;28;20045;-67
2022/04/09 05:07:43;;;;;;;31.60;12.35;;;1.70;99.90;;;;;;4989405;28;20038;-67
2022/04/09 05:10:18;;;;;;;27.20;11.10;;;1.70;99.90;;;;;;4986458;28;20475;-67
2022/04/09 05:12:45;;;;;;;29.25;11.82;;;1.70;99.90;;;;;;4985721;28;20030;-66
2022/04/09 05:15:13;;;;;;;28.92;10.52;;;1.70;99.90;;;;;;4987334;28;20137;-67
2022/04/09 05:17:39;;;;;;;28.60;11.57;;;1.70;99.90;;;;;;4987690;28;20023;-66
2022/04/09 05:20:10;;;;;;;30.17;11.43;;;1.70;99.90;;;;;;4985672;28;20030;-66
2022/04/09 05:22:38;;;;;;;26.02;10.65;;;1.70;99.90;;;;;;4989441;28;20428;-67
2022/04/09 05:25:04;;;;;;;26.77;11.13;;;1.70;99.90;;;;;;4985794;28;20591;-66
2022/04/09 05:27:30;;;;;;;29.50;10.65;;;1.70;99.90;;;;;;4988210;28;20391;-67
2022/04/09 05:29:56;;;;;;;26.67;10.48;;;1.70;99.90;;;;;;4986169;28;20109;-66
2022/04/09 05:32:22;;;;;;;30.13;11.70;;;1.70;99.90;;;;;;4989411;28;20472;-66
2022/04/09 05:34:48;;;;;;;25.85;11.07;;;1.80;99.90;;;;;;4987211;28;20428;-65
2022/04/09 05:37:14;;;;;;;25.58;10.40;;;1.80;99.90;;;;;;4988522;28;20763;-66
2022/04/09 05:39:46;;;;;;;23.58;10.18;;;1.90;99.90;;;;;;4985785;28;20045;-65
2022/04/09 05:42:12;;;;;;;26.65;10.63;;;1.90;99.90;;;;;;4987231;28;20472;-66
2022/04/09 05:44:38;;;;;;;26.63;10.05;;;2.00;99.90;;;;;;4986864;28;20046;-65
2022/04/09 05:47:04;;;;;;;26.80;10.88;;;1.90;99.90;;;;;;4988037;28;20507;-66
2022/04/09 05:49:30;;;;;;;26.08;10.45;;;2.00;99.90;;;;;;4988429;28;20037;-65
2022/04/09 05:51:57;;;;;;;26.98;10.45;;;2.00;99.90;;;;;;4985014;28;20034;-65
2022/04/09 05:54:24;;;;;;;23.02;9.65;;;2.00;99.90;;;;;;4985990;28;20030;-65
2022/04/09 05:56:50;;;;;;;23.38;9.43;;;2.10;99.90;;;;;;4985057;28;20463;-64
2022/04/09 05:59:16;;;;;;;27.38;9.80;;;2.00;99.90;;;;;;4988042;28;20030;-65
2022/04/09 06:01:42;;;;;;;23.20;9.73;;;2.10;99.90;;;;;;4988708;28;20510;-65
2022/04/09 06:04:08;;;;;;;25.75;9.57;;;2.10;99.90;;;;;;4985343;28;20033;-64
2022/04/09 06:06:34;;;;;;;21.38;9.82;;;2.10;99.90;;;;;;4985631;28;20141;-65
2022/04/09 06:09:00;;;;;;;23.38;9.95;;;2.10;99.90;;;;;;4983648;28;20120;-64
2022/04/09 06:11:26;;;;;;;20.42;9.60;;;2.20;99.90;;;;;;4986372;28;20062;-65
2022/04/09 06:13:51;;;;;;;23.02;9.25;;;2.20;99.90;;;;;;4986746;28;20030;-64
2022/04/09 06:16:17;;;;;;;26.33;10.10;;;2.20;99.90;;;;;;4990026;28;20125;-65
2022/04/09 06:18:43;;;;;;;24.80;9.27;;;2.20;99.90;;;;;;4991611;28;20134;-64
2022/04/09 06:21:09;;;;;;;24.35;9.82;;;2.20;99.90;;;;;;4988727;28;20090;-64
2022/04/09 06:23:36;;;;;;;26.08;10.15;;;2.10;99.90;;;;;;4990834;28;20479;-64
2022/04/09 06:26:02;;;;;;;21.65;9.35;;;2.10;99.90;;;;;;4989725;28;20638;-65
2022/04/09 06:28:28;;;;;;;21.92;9.45;;;2.20;99.90;;;;;;4991270;28;20113;-64
2022/04/09 06:30:54;;;;;;;25.58;10.02;;;2.10;99.90;;;;;;4989860;28;20041;-64
2022/04/09 06:33:22;;;;;;;21.95;9.23;;;2.10;99.90;;;;;;4991371;28;20034;-64
2022/04/09 06:35:48;;;;;;;21.48;8.82;;;2.10;99.90;;;;;;4990498;28;20037;-65
2022/04/09 06:38:14;;;;;;;26.33;10.15;;;2.10;99.90;;;;;;4991454;28;20031;-65
2022/04/09 06:40:40;;;;;;;20.10;8.65;;;2.10;99.90;;;;;;4989637;28;20543;-65
2022/04/09 06:43:06;;;;;;;23.27;9.30;;;2.10;99.90;;;;;;4990948;28;20049;-65
2022/04/09 06:45:33;;;;;;;20.90;8.70;;;2.10;99.90;;;;;;4990971;28;20069;-65
2022/04/09 06:47:59;;;;;;;21.92;8.32;;;2.10;99.90;;;;;;4990430;28;20164;-65
2022/04/09 06:50:25;;;;;;;30.33;9.68;;;2.10;99.90;;;;;;4990496;28;20541;-65
2022/04/09 06:52:50;;;;;;;26.77;9.68;;;2.10;99.90;;;;;;4990792;28;20061;-64
2022/04/09 06:55:16;;;;;;;26.90;10.45;;;2.20;99.90;;;;;;4990390;28;20109;-65
2022/04/09 06:57:42;;;;;;;24.65;9.90;;;2.20;99.90;;;;;;4991470;28;20058;-65
2022/04/09 07:00:14;;;;;;;30.50;11.02;;;2.20;99.90;;;;;;4988877;28;20026;-65
2022/04/09 07:02:40;;;;;;;25.42;10.18;;;2.20;99.90;;;;;;4991648;28;20030;-66
2022/04/09 07:05:07;;;;;;;29.15;10.50;;;2.20;99.90;;;;;;4977014;28;20046;-65
2022/04/09 07:07:33;;;;;;;25.30;10.13;;;2.30;99.90;;;;;;4989782;28;20551;-65
2022/04/09 07:10:08;;;;;;;20.85;9.60;;;2.20;99.90;;;;;;4989193;28;20487;-64
2022/04/09 07:12:34;;;;;;;23.15;9.82;;;2.20;99.90;;;;;;4991624;28;20026;-64
2022/04/09 07:15:01;;;;;;;25.17;9.48;;;2.20;99.90;;;;;;4981540;28;20045;-63
2022/04/09 07:17:26;;;;;;;25.45;11.13;;;2.20;99.90;;;;;;4987667;28;20113;-65
2022/04/09 07:20:00;;;;;;;26.05;10.32;;;2.30;99.90;;;;;;4987661;28;20113;-64
2022/04/09 07:22:26;;;;;;;25.20;11.18;;;2.50;99.90;;;;;;4990605;28;20113;-65
2022/04/09 07:24:52;;;;;;;31.73;9.80;;;2.50;99.90;;;;;;4989188;28;20069;-65
2022/04/09 07:27:18;;;;;;;29.20;9.77;;;2.60;99.90;;;;;;4989283;28;20038;-65
2022/04/09 07:29:44;;;;;;;22.80;9.55;;;2.60;99.90;;;;;;4990315;28;20181;-65
2022/04/09 07:32:09;;;;;;;19.55;8.98;;;2.80;99.90;;;;;;4989740;28;20042;-65
2022/04/09 07:34:35;;;;;;;20.17;8.63;;;2.80;99.90;;;;;;4990053;28;20109;-65
2022/04/09 07:37:01;;;;;;;22.83;9.15;;;2.90;99.90;;;;;;4989873;28;20053;-65
2022/04/09 07:39:27;;;;;;;22.70;9.95;;;3.00;99.90;;;;;;4988158;28;20113;-65
2022/04/09 07:41:52;;;;;;;22.15;9.57;;;2.90;99.90;;;;;;4989457;28;20026;-65
2022/04/09 07:44:18;;;;;;;20.85;9.00;;;2.90;99.90;;;;;;4987109;28;20050;-64
2022/04/09 07:46:43;;;;;;;28.45;9.63;;;2.90;99.90;;;;;;4987933;28;20398;-65
2022/04/09 07:49:09;;;;;;;24.98;9.70;;;2.90;99.90;;;;;;4988702;28;20498;-64
2022/04/09 07:51:35;;;;;;;22.05;8.60;;;2.90;99.90;;;;;;4989487;28;20038;-64
2022/04/09 07:54:01;;;;;;;23.90;9.70;;;3.00;99.90;;;;;;4988661;28;20152;-64
2022/04/09 07:56:27;;;;;;;22.30;8.35;;;3.00;99.90;;;;;;4989328;28;20034;-65
2022/04/09 07:58:52;;;;;;;30.10;9.73;;;3.10;99.90;;;;;;4990045;28;20034;-64
2022/04/09 08:01:18;;;;;;;22.33;9.05;;;3.40;99.90;;;;;;4988579;28;20030;-65
2022/04/09 08:03:44;;;;;;;21.25;9.30;;;3.60;99.90;;;;;;4988472;28;20081;-65
2022/04/09 08:06:10;;;;;;;23.48;9.80;;;3.60;99.90;;;;;;4986183;28;20030;-65
2022/04/09 08:08:36;;;;;;;19.20;9.05;;;3.80;99.90;;;;;;4990462;28;20113;-65
2022/04/09 08:11:02;;;;;;;22.08;8.82;;;3.70;99.90;;;;;;4989409;28;20038;-65
2022/04/09 08:13:27;;;;;;;20.90;8.52;;;3.70;99.90;;;;;;4983110;28;20041;-66
2022/04/09 08:15:53;;;;;;;22.05;8.57;;;3.50;99.90;;;;;;4988955;28;20049;-65
2022/04/09 08:18:19;;;;;;;27.67;9.63;;;3.40;99.90;;;;;;4989238;28;20488;-65
2022/04/09 08:20:44;;;;;;;25.95;8.85;;;3.60;99.90;;;;;;4988003;28;20096;-64
2022/04/09 08:23:10;;;;;;;24.27;9.15;;;3.60;99.90;;;;;;4987639;28;20037;-65
2022/04/09 08:25:36;;;;;;;24.13;9.75;;;3.60;99.90;;;;;;4989489;28;20109;-63
2022/04/09 08:28:02;;;;;;;26.77;11.18;;;3.70;99.90;;;;;;4987724;28;20498;-62
2022/04/09 08:30:29;;;;;;;23.58;9.73;;;3.80;99.90;;;;;;4988910;28;20035;-63
2022/04/09 08:32:56;;;;;;;20.15;8.77;;;3.80;99.90;;;;;;4987321;28;20125;-62
2022/04/09 08:35:22;;;;;;;26.10;10.23;;;3.90;99.90;;;;;;4987065;28;20037;-63
2022/04/09 08:37:56;;;;;;;27.95;9.15;;;4.00;99.90;;;;;;4988012;28;20085;-63
2022/04/09 08:40:23;;;;;;;20.60;8.90;;;4.30;99.90;;;;;;4980319;28;20486;-63
2022/04/09 08:42:49;;;;;;;25.20;8.77;;;4.30;99.90;;;;;;4988532;28;20026;-63
2022/04/09 08:45:17;;;;;;;26.88;10.00;;;4.20;99.90;;;;;;4983040;28;21539;-63
2022/04/09 08:47:44;;;;;;;20.52;8.30;;;4.30;99.90;;;;;;4987879;28;20030;-63
2022/04/09 08:50:12;;;;;;;15.70;7.13;;;4.30;99.90;;;;;;4986827;28;20356;-64
2022/04/09 08:52:42;;;;;;;19.27;7.65;;;4.10;99.90;;;;;;4987255;28;20030;-63
2022/04/09 08:55:09;;;;;;;21.52;8.90;;;4.20;99.90;;;;;;4986368;28;20041;-64
2022/04/09 08:57:35;;;;;;;17.17;8.75;;;4.30;99.90;;;;;;4985500;28;20133;-64
2022/04/09 09:00:17;;;;;;;19.35;7.55;;;4.40;99.90;;;;;;4984461;28;20447;-64
2022/04/09 09:02:54;;;;;;;20.35;8.50;;;4.50;99.90;;;;;;4981259;28;20058;-64
2022/04/09 09:05:52;;;;;;;21.98;8.00;;;4.60;99.90;;;;;;4986282;28;20053;-64
2022/04/09 09:08:39;;;;;;;22.85;8.48;;;4.50;99.90;;;;;;4982545;28;20046;-64
2022/04/09 09:11:05;;;;;;;23.00;9.15;;;4.60;99.90;;;;;;4985180;28;20384;-63
2022/04/09 09:13:48;;;;;;;18.83;7.53;;;4.50;99.90;;;;;;4988411;28;20027;-63
2022/04/09 09:16:31;;;;;;;18.30;7.47;;;4.40;99.90;;;;;;4986824;28;20505;-63
2022/04/09 09:19:09;;;;;;;25.77;7.78;;;4.50;99.90;;;;;;4986906;28;20034;-64
2022/04/09 09:21:34;;;;;;;26.73;7.78;;;4.80;99.90;;;;;;4987187;28;20483;-63
2022/04/09 09:24:14;;;;;;;16.48;6.55;;;4.90;99.90;;;;;;4984219;28;20061;-62
2022/04/09 09:26:40;;;;;;;17.45;7.63;;;5.00;99.90;;;;;;4985806;28;20045;-63
2022/04/09 09:29:12;;;;;;;15.00;7.00;;;5.10;99.90;;;;;;4987514;28;20038;-63
2022/04/09 09:31:42;;;;;;;16.70;7.18;;;5.00;99.90;;;;;;4987907;28;20518;-64
2022/04/09 09:34:13;;;;;;;16.35;6.15;;;5.00;99.90;;;;;;4987718;28;20080;-62
2022/04/09 09:36:43;;;;;;;18.08;7.35;;;5.10;99.90;;;;;;4987722;28;20434;-64
2022/04/09 09:39:11;;;;;;;13.65;6.38;;;5.20;99.90;;;;;;4986484;28;20037;-64
2022/04/09 09:42:06;;;;;;;13.60;5.32;;;5.50;99.90;;;;;;4987931;28;20387;-64
2022/04/09 09:44:41;;;;;;;18.77;5.38;;;5.60;99.90;;;;;;4970306;28;20058;-64
2022/04/09 09:47:09;;;;;;;10.45;4.47;;;5.90;99.90;;;;;;4985624;28;20053;-64
2022/04/09 09:49:58;;;;;;;16.58;4.90;;;6.10;99.90;;;;;;4988451;28;20030;-63
2022/04/09 09:52:25;;;;;;;14.40;4.78;;;6.10;99.90;;;;;;4988970;28;20034;-64
2022/04/09 09:55:02;;;;;;;14.65;5.18;;;5.80;99.90;;;;;;4993019;28;20061;-64
2022/04/09 09:57:29;;;;;;;13.10;4.70;;;5.60;99.90;;;;;;4991939;28;20030;-64
2022/04/09 10:00:01;;;;;;;11.13;4.72;;;5.50;99.90;;;;;;4992277;28;20117;-63
2022/04/09 10:02:27;;;;;;;14.20;5.13;;;5.40;99.90;;;;;;4984592;28;20042;-64
2022/04/09 10:04:54;;;;;;;12.45;4.45;;;5.30;99.90;;;;;;4990660;28;20824;-64
2022/04/09 10:07:20;;;;;;;14.35;4.95;;;5.40;99.90;;;;;;4990835;28;20074;-64
2022/04/09 10:09:49;;;;;;;12.38;5.60;;;5.50;99.90;;;;;;4991101;28;20030;-63
2022/04/09 10:12:20;;;;;;;21.35;6.10;;;5.60;99.90;;;;;;4984700;28;20793;-64
2022/04/09 10:14:58;;;;;;;12.32;4.60;;;5.60;99.90;;;;;;4988570;28;20030;-64
2022/04/09 10:17:26;;;;;;;13.88;4.60;;;5.50;99.90;;;;;;4987025;28;20058;-64
2022/04/09 10:19:56;;;;;;;14.45;4.95;;;5.40;99.90;;;;;;4991738;28;20093;-65
2022/04/09 10:22:23;;;;;;;;;;;5.40;99.90;;;;;;4985462;28;20031;-65
2022/04/09 10:24:50;;;;;;;13.88;4.85;;;5.50;99.90;;;;;;4990357;28;19971;-67
2022/04/09 10:27:40;;;;;;;17.33;5.07;;;5.40;99.90;;;;;;4991404;28;20038;-67
2022/04/09 10:30:15;;;;;;;19.73;5.50;;;5.30;99.90;;;;;;4983696;28;20062;-65
2022/04/09 10:32:44;;;;;;;15.55;4.95;;;5.70;99.90;;;;;;4990988;28;20030;-67
2022/04/09 10:35:39;;;;;;;8.60;3.17;;;6.10;99.90;;;;;;4990827;28;20507;-67
2022/04/09 10:38:07;;;;;;;9.60;2.90;;;6.70;99.90;;;;;;4981657;28;20285;-65
2022/04/09 10:40:57;;;;;;;9.93;3.20;;;7.20;99.90;;;;;;4989877;28;20502;-67
2022/04/09 10:43:23;;;;;;;11.82;3.85;;;7.40;99.90;;;;;;4989158;28;20558;-67
2022/04/09 10:46:05;;;;;;;12.95;3.75;;;7.00;99.90;;;;;;4989276;28;20077;-65
2022/04/09 10:48:35;;;;;;;10.60;3.97;;;6.80;99.90;;;;;;4991171;28;20475;-66
2022/04/09 10:51:04;;;;;;;13.73;4.28;;;7.00;99.90;;;;;;4988260;28;20038;-67
2022/04/09 10:53:37;;;;;;;8.10;3.40;;;6.90;99.90;;;;;;4987856;28;20044;-64
2022/04/09 10:56:29;;;;;;;10.07;3.10;;;6.60;99.90;;;;;;4990104;28;20026;-68
2022/04/09 10:59:28;;;;;;;10.73;3.03;;;6.40;99.90;;;;;;4985836;28;20034;-67
2022/04/09 11:01:54;;;;;;;11.50;2.80;;;6.50;99.90;;;;;;4989260;28;20061;-71
2022/04/09 11:04:38;;;;;;;11.05;3.17;;;6.90;99.90;;;;;;4986164;28;20030;-70
2022/04/09 11:07:18;;;;;;;11.25;3.67;;;6.80;99.90;;;;;;4986573;28;20077;-70
2022/04/09 11:09:48;;;;;;;9.07;3.20;;;6.50;99.90;;;;;;4990417;28;20104;-70
2022/04/09 11:12:26;;;;;;;10.52;3.90;;;6.20;99.90;;;;;;4986001;28;20118;-69
2022/04/09 11:14:59;;;;;;;13.07;3.83;;;6.00;99.90;;;;;;4988030;28;20030;-68
2022/04/09 11:17:32;;;;;;;9.93;2.70;;;6.60;99.90;;;;;;4988299;28;20030;-68
2022/04/09 11:20:11;;;;;;;9.38;2.97;;;6.50;99.90;;;;;;4987222;28;20031;-69
2022/04/09 11:22:41;;;;;;;9.90;3.17;;;6.40;99.90;;;;;;4990638;28;20041;-69
2022/04/09 11:25:09;;;;;;;7.40;2.80;;;6.40;99.90;;;;;;4988042;28;20034;-67
2022/04/09 11:27:35;;;;;;;9.05;3.08;;;6.60;99.90;;;;;;4990730;28;20312;-68
2022/04/09 11:30:02;;;;;;;11.20;3.55;;;6.70;99.90;;;;;;4991271;28;20467;-68
2022/04/09 11:32:28;;;;;;;13.52;3.30;;;7.00;99.90;;;;;;4990203;28;20109;-69
2022/04/09 11:34:55;;;;;;;10.30;3.70;;;7.60;99.90;;;;;;4991058;28;20081;-68
2022/04/09 11:37:22;;;;;;;6.82;2.97;;;7.20;99.90;;;;;;4990092;28;20034;-71
2022/04/09 11:39:50;;;;;;;11.80;2.55;;;6.80;99.90;;;;;;4989705;28;20482;-68
2022/04/09 11:42:16;;;;;;;9.75;2.63;;;6.50;99.90;;;;;;4992642;28;20089;-69
2022/04/09 11:44:42;;;;;;;9.90;2.97;;;6.30;99.90;;;;;;4989720;28;20061;-68
2022/04/09 11:47:13;;;;;;;15.57;3.63;;;6.50;99.90;;;;;;4988326;28;20042;-67
2022/04/09 11:49:43;;;;;;;10.95;3.60;;;7.00;99.90;;;;;;4987830;28;20093;-69
2022/04/09 11:52:09;;;;;;;10.03;3.57;;;7.50;99.90;;;;;;4990176;28;20080;-69
2022/04/09 11:54:38;;;;;;;8.15;3.10;;;7.70;99.90;;;;;;4986821;28;20100;-69
2022/04/09 11:57:09;;;;;;;10.95;3.50;;;8.20;99.90;;;;;;4987742;28;20096;-70
2022/04/09 11:59:35;;;;;;;8.07;2.80;;;8.50;99.90;;;;;;4988828;28;20080;-70
2022/04/09 12:02:00;;;;;;;12.18;4.38;;;8.50;99.90;;;;;;4986220;28;20046;-70
2022/04/09 12:04:36;;;;;;;14.05;3.30;;;8.30;99.90;;;;;;4988367;28;20065;-69
2022/04/09 12:07:03;;;;;;;10.65;2.97;;;7.70;99.90;;;;;;4988521;28;20042;-70
2022/04/09 12:09:30;;;;;;;11.38;3.53;;;7.40;99.90;;;;;;4988256;28;20072;-70
2022/04/09 12:12:00;;;;;;;9.38;3.28;;;7.10;99.90;;;;;;4987090;28;20034;-70
2022/04/09 12:14:27;;;;;;;13.90;3.20;;;7.40;99.90;;;;;;4988683;28;20133;-69
2022/04/09 12:16:54;;;;;;;12.18;3.53;;;8.10;99.90;;;;;;4988282;28;20042;-68
2022/04/09 12:19:30;;;;;;;6.13;2.60;;;8.30;99.90;;;;;;4985668;28;20474;-68
2022/04/09 12:22:10;;;;;;;11.38;3.53;;;8.00;99.90;;;;;;4988611;28;20104;-67
2022/04/09 12:24:55;;;;;;;13.10;2.93;;;7.50;99.90;;;;;;4987781;28;20121;-67
2022/04/09 12:27:40;;;;;;;15.50;3.25;;;7.40;99.90;;;;;;4988246;28;20066;-67
2022/04/09 12:30:06;;;;;;;6.53;2.70;;;7.20;99.90;;;;;;4983142;28;20038;-67
2022/04/09 12:32:33;;;;;;;11.50;2.83;;;7.60;99.90;;;;;;4988200;28;20037;-66
2022/04/09 12:35:10;;;;;;;9.73;3.63;;;7.70;99.90;;;;;;4986294;28;21198;-66
2022/04/09 12:37:47;;;;;;;12.85;3.33;;;7.80;99.90;;;;;;4987372;28;20113;-67
2022/04/09 12:40:18;;;;;;;8.52;3.05;;;7.80;99.90;;;;;;4983930;28;20053;-66
2022/04/09 12:42:45;;;;;;;9.23;3.15;;;7.80;99.90;;;;;;4975065;28;20503;-67
2022/04/09 12:45:12;;;;;;;8.43;3.30;;;8.00;99.90;;;;;;4989240;28;20169;-65
2022/04/09 12:47:38;;;;;;;12.93;2.97;;;8.00;99.90;;;;;;4987119;28;20500;-67
2022/04/09 12:50:04;;;;;;;10.23;3.08;;;7.70;99.90;;;;;;4989504;28;20053;-67
2022/04/09 12:52:30;;;;;;;7.63;2.90;;;7.40;99.90;;;;;;4985882;28;20042;-66
2022/04/09 12:54:56;;;;;;;10.07;2.92;;;7.90;99.90;;;;;;4988916;28;20472;-67
2022/04/09 12:57:22;;;;;;;8.05;3.58;;;7.70;99.90;;;;;;4987033;28;20042;-67
2022/04/09 12:59:48;;;;;;;19.38;3.92;;;7.70;99.90;;;;;;4988991;28;20140;-67